sensor_id;sensor_type;location;lat;lon;timestamp;P1;durP1;ratioP1;P2;durP2;ratioP2
23044;SDS011;11690;51.716;23.066;2022-10-16T00:01:26;22.95;;;15.40;;
23044;SDS011;11690;51.716;23.066;2022-10-16T00:03:55;25.30;;;18.65;;
23044;SDS011;11690;51.716;23.066;2022-10-16T00:06:24;25.05;;;16.83;;
23044;SDS011;11690;51.716;23.066;2022-10-16T00:08:51;37.28;;;24.80;;
23044;SDS011;11690;51.716;23.066;2022-10-16T00:11:21;36.28;;;22.77;;
23044;SDS011;11690;51.716;23.066;2022-10-16T00:13:50;32.63;;;23.20;;
23044;SDS011;11690;51.716;23.066;2022-10-16T00:16:19;33.33;;;21.55;;
23044;SDS011;11690;51.716;23.066;2022-10-16T00:18:46;29.77;;;22.92;;
23044;SDS011;11690;51.716;23.066;2022-10-16T00:21:15;27.63;;;20.58;;
23044;SDS011;11690;51.716;23.066;2022-10-16T00:23:43;23.45;;;17.95;;
23044;SDS011;11690;51.716;23.066;2022-10-16T00:26:12;28.70;;;18.60;;
23044;SDS011;11690;51.716;23.066;2022-10-16T00:28:41;26.40;;;17.15;;
23044;SDS011;11690;51.716;23.066;2022-10-16T00:31:10;30.63;;;20.90;;
23044;SDS011;11690;51.716;23.066;2022-10-16T00:33:38;26.23;;;17.27;;
23044;SDS011;11690;51.716;23.066;2022-10-16T00:36:06;28.13;;;17.02;;
23044;SDS011;11690;51.716;23.066;2022-10-16T00:38:35;26.58;;;17.42;;
23044;SDS011;11690;51.716;23.066;2022-10-16T00:41:05;27.15;;;17.83;;
23044;SDS011;11690;51.716;23.066;2022-10-16T00:46:02;30.83;;;21.48;;
23044;SDS011;11690;51.716;23.066;2022-10-16T00:48:30;37.17;;;28.05;;
23044;SDS011;11690;51.716;23.066;2022-10-16T00:50:58;34.88;;;24.02;;
23044;SDS011;11690;51.716;23.066;2022-10-16T00:53:25;32.67;;;24.25;;
23044;SDS011;11690;51.716;23.066;2022-10-16T00:55:52;38.30;;;29.40;;
23044;SDS011;11690;51.716;23.066;2022-10-16T00:58:20;28.73;;;19.88;;
23044;SDS011;11690;51.716;23.066;2022-10-16T01:00:47;31.73;;;22.27;;
23044;SDS011;11690;51.716;23.066;2022-10-16T01:03:48;27.00;;;19.48;;
23044;SDS011;11690;51.716;23.066;2022-10-16T01:11:21;29.85;;;20.25;;
23044;SDS011;11690;51.716;23.066;2022-10-16T01:13:55;28.25;;;17.17;;
23044;SDS011;11690;51.716;23.066;2022-10-16T01:16:30;27.15;;;17.08;;
23044;SDS011;11690;51.716;23.066;2022-10-16T01:19:03;32.33;;;26.13;;
23044;SDS011;11690;51.716;23.066;2022-10-16T01:21:36;36.55;;;29.90;;
23044;SDS011;11690;51.716;23.066;2022-10-16T01:27:01;49.70;;;37.70;;
23044;SDS011;11690;51.716;23.066;2022-10-16T01:29:30;51.30;;;42.72;;
23044;SDS011;11690;51.716;23.066;2022-10-16T01:32:05;33.13;;;24.13;;
23044;SDS011;11690;51.716;23.066;2022-10-16T01:34:38;28.17;;;20.35;;
23044;SDS011;11690;51.716;23.066;2022-10-16T01:37:37;34.47;;;19.75;;
23044;SDS011;11690;51.716;23.066;2022-10-16T01:40:09;29.05;;;19.88;;
23044;SDS011;11690;51.716;23.066;2022-10-16T01:42:48;29.98;;;18.77;;
23044;SDS011;11690;51.716;23.066;2022-10-16T01:45:18;28.20;;;19.00;;
23044;SDS011;11690;51.716;23.066;2022-10-16T01:47:46;28.27;;;17.90;;
23044;SDS011;11690;51.716;23.066;2022-10-16T01:50:14;26.08;;;18.52;;
23044;SDS011;11690;51.716;23.066;2022-10-16T01:52:43;31.65;;;22.80;;
23044;SDS011;11690;51.716;23.066;2022-10-16T01:55:13;33.88;;;24.17;;
23044;SDS011;11690;51.716;23.066;2022-10-16T01:57:44;37.72;;;28.35;;
23044;SDS011;11690;51.716;23.066;2022-10-16T02:00:13;33.85;;;26.25;;
23044;SDS011;11690;51.716;23.066;2022-10-16T02:02:41;36.05;;;25.67;;
23044;SDS011;11690;51.716;23.066;2022-10-16T02:07:59;30.80;;;21.60;;
23044;SDS011;11690;51.716;23.066;2022-10-16T02:10:31;36.72;;;24.65;;
23044;SDS011;11690;51.716;23.066;2022-10-16T02:13:06;32.33;;;20.45;;
23044;SDS011;11690;51.716;23.066;2022-10-16T02:15:54;34.65;;;26.52;;
23044;SDS011;11690;51.716;23.066;2022-10-16T02:18:21;28.10;;;19.08;;
23044;SDS011;11690;51.716;23.066;2022-10-16T02:23:19;33.13;;;19.42;;
23044;SDS011;11690;51.716;23.066;2022-10-16T02:25:51;25.17;;;18.20;;
23044;SDS011;11690;51.716;23.066;2022-10-16T02:28:24;34.28;;;24.23;;
23044;SDS011;11690;51.716;23.066;2022-10-16T02:30:58;41.25;;;31.80;;
23044;SDS011;11690;51.716;23.066;2022-10-16T02:33:27;42.47;;;31.73;;
23044;SDS011;11690;51.716;23.066;2022-10-16T02:35:54;41.97;;;34.28;;
23044;SDS011;11690;51.716;23.066;2022-10-16T02:38:22;48.47;;;37.45;;
23044;SDS011;11690;51.716;23.066;2022-10-16T02:40:50;30.20;;;19.83;;
23044;SDS011;11690;51.716;23.066;2022-10-16T02:43:17;33.70;;;21.23;;
23044;SDS011;11690;51.716;23.066;2022-10-16T02:45:44;39.03;;;24.90;;
23044;SDS011;11690;51.716;23.066;2022-10-16T02:48:12;31.30;;;21.65;;
23044;SDS011;11690;51.716;23.066;2022-10-16T02:50:39;31.00;;;22.23;;
23044;SDS011;11690;51.716;23.066;2022-10-16T02:53:06;31.88;;;21.95;;
23044;SDS011;11690;51.716;23.066;2022-10-16T02:55:32;29.48;;;19.50;;
23044;SDS011;11690;51.716;23.066;2022-10-16T02:58:00;34.13;;;20.92;;
23044;SDS011;11690;51.716;23.066;2022-10-16T03:00:27;30.60;;;20.58;;
23044;SDS011;11690;51.716;23.066;2022-10-16T03:02:55;52.03;;;40.70;;
23044;SDS011;11690;51.716;23.066;2022-10-16T03:05:22;41.25;;;34.30;;
23044;SDS011;11690;51.716;23.066;2022-10-16T03:07:49;44.03;;;34.63;;
23044;SDS011;11690;51.716;23.066;2022-10-16T03:10:16;44.03;;;31.38;;
23044;SDS011;11690;51.716;23.066;2022-10-16T03:12:43;40.08;;;28.27;;
23044;SDS011;11690;51.716;23.066;2022-10-16T03:15:09;31.88;;;22.10;;
23044;SDS011;11690;51.716;23.066;2022-10-16T03:17:37;33.50;;;19.98;;
23044;SDS011;11690;51.716;23.066;2022-10-16T03:20:03;33.92;;;20.67;;
23044;SDS011;11690;51.716;23.066;2022-10-16T03:22:31;29.63;;;20.15;;
23044;SDS011;11690;51.716;23.066;2022-10-16T03:24:58;28.90;;;20.05;;
23044;SDS011;11690;51.716;23.066;2022-10-16T03:27:25;34.10;;;20.98;;
23044;SDS011;11690;51.716;23.066;2022-10-16T03:29:52;31.27;;;19.83;;
23044;SDS011;11690;51.716;23.066;2022-10-16T03:32:20;31.33;;;21.23;;
23044;SDS011;11690;51.716;23.066;2022-10-16T03:34:46;36.13;;;25.20;;
23044;SDS011;11690;51.716;23.066;2022-10-16T03:37:13;47.40;;;41.28;;
23044;SDS011;11690;51.716;23.066;2022-10-16T03:39:40;38.55;;;26.52;;
23044;SDS011;11690;51.716;23.066;2022-10-16T03:42:07;46.85;;;34.03;;
23044;SDS011;11690;51.716;23.066;2022-10-16T03:44:34;48.72;;;38.92;;
23044;SDS011;11690;51.716;23.066;2022-10-16T03:47:01;43.13;;;33.00;;
23044;SDS011;11690;51.716;23.066;2022-10-16T03:49:28;33.88;;;20.35;;
23044;SDS011;11690;51.716;23.066;2022-10-16T03:51:55;33.67;;;25.25;;
23044;SDS011;11690;51.716;23.066;2022-10-16T03:54:22;32.00;;;19.92;;
23044;SDS011;11690;51.716;23.066;2022-10-16T03:56:49;29.85;;;20.55;;
23044;SDS011;11690;51.716;23.066;2022-10-16T03:59:17;27.23;;;19.27;;
23044;SDS011;11690;51.716;23.066;2022-10-16T04:01:44;32.90;;;19.65;;
23044;SDS011;11690;51.716;23.066;2022-10-16T04:04:11;28.80;;;18.70;;
23044;SDS011;11690;51.716;23.066;2022-10-16T04:06:38;30.10;;;18.83;;
23044;SDS011;11690;51.716;23.066;2022-10-16T04:09:05;32.97;;;24.00;;
23044;SDS011;11690;51.716;23.066;2022-10-16T04:11:32;39.28;;;26.60;;
23044;SDS011;11690;51.716;23.066;2022-10-16T04:13:59;38.50;;;30.35;;
23044;SDS011;11690;51.716;23.066;2022-10-16T04:16:26;45.38;;;38.20;;
23044;SDS011;11690;51.716;23.066;2022-10-16T04:18:53;46.10;;;34.38;;
23044;SDS011;11690;51.716;23.066;2022-10-16T04:21:20;44.38;;;38.63;;
23044;SDS011;11690;51.716;23.066;2022-10-16T04:23:47;33.60;;;20.92;;
23044;SDS011;11690;51.716;23.066;2022-10-16T04:26:16;33.90;;;19.23;;
23044;SDS011;11690;51.716;23.066;2022-10-16T04:28:43;30.95;;;20.70;;
23044;SDS011;11690;51.716;23.066;2022-10-16T04:31:10;37.20;;;24.88;;
23044;SDS011;11690;51.716;23.066;2022-10-16T04:33:37;31.15;;;19.67;;
23044;SDS011;11690;51.716;23.066;2022-10-16T04:36:04;35.33;;;25.30;;
23044;SDS011;11690;51.716;23.066;2022-10-16T04:38:31;28.55;;;18.60;;
23044;SDS011;11690;51.716;23.066;2022-10-16T04:40:58;29.67;;;18.75;;
23044;SDS011;11690;51.716;23.066;2022-10-16T04:43:26;28.23;;;17.98;;
23044;SDS011;11690;51.716;23.066;2022-10-16T04:45:58;27.20;;;18.33;;
23044;SDS011;11690;51.716;23.066;2022-10-16T04:48:25;38.92;;;29.50;;
23044;SDS011;11690;51.716;23.066;2022-10-16T04:50:53;31.35;;;21.15;;
23044;SDS011;11690;51.716;23.066;2022-10-16T04:53:20;34.65;;;25.95;;
23044;SDS011;11690;51.716;23.066;2022-10-16T04:55:48;38.10;;;24.15;;
23044;SDS011;11690;51.716;23.066;2022-10-16T04:58:16;30.35;;;22.25;;
23044;SDS011;11690;51.716;23.066;2022-10-16T05:00:43;28.17;;;19.02;;
23044;SDS011;11690;51.716;23.066;2022-10-16T05:03:11;29.25;;;20.33;;
23044;SDS011;11690;51.716;23.066;2022-10-16T05:05:43;31.20;;;20.67;;
23044;SDS011;11690;51.716;23.066;2022-10-16T05:08:14;28.48;;;17.83;;
23044;SDS011;11690;51.716;23.066;2022-10-16T05:10:42;26.73;;;19.23;;
23044;SDS011;11690;51.716;23.066;2022-10-16T05:13:10;28.13;;;18.17;;
23044;SDS011;11690;51.716;23.066;2022-10-16T05:15:37;27.00;;;17.38;;
23044;SDS011;11690;51.716;23.066;2022-10-16T05:18:04;30.13;;;18.33;;
23044;SDS011;11690;51.716;23.066;2022-10-16T05:20:31;30.30;;;17.60;;
23044;SDS011;11690;51.716;23.066;2022-10-16T05:22:58;25.10;;;17.42;;
23044;SDS011;11690;51.716;23.066;2022-10-16T05:25:26;28.30;;;17.63;;
23044;SDS011;11690;51.716;23.066;2022-10-16T05:27:52;31.27;;;17.95;;
23044;SDS011;11690;51.716;23.066;2022-10-16T05:30:19;31.45;;;18.33;;
23044;SDS011;11690;51.716;23.066;2022-10-16T05:32:47;28.33;;;17.35;;
23044;SDS011;11690;51.716;23.066;2022-10-16T05:35:16;27.73;;;18.52;;
23044;SDS011;11690;51.716;23.066;2022-10-16T05:37:43;30.23;;;19.90;;
23044;SDS011;11690;51.716;23.066;2022-10-16T05:40:11;29.17;;;19.60;;
23044;SDS011;11690;51.716;23.066;2022-10-16T05:42:39;37.05;;;23.88;;
23044;SDS011;11690;51.716;23.066;2022-10-16T05:45:08;32.50;;;24.15;;
23044;SDS011;11690;51.716;23.066;2022-10-16T05:47:36;32.03;;;26.35;;
23044;SDS011;11690;51.716;23.066;2022-10-16T05:50:03;33.85;;;22.88;;
23044;SDS011;11690;51.716;23.066;2022-10-16T05:52:32;46.72;;;37.33;;
23044;SDS011;11690;51.716;23.066;2022-10-16T05:54:59;35.70;;;22.52;;
23044;SDS011;11690;51.716;23.066;2022-10-16T05:57:26;32.97;;;24.85;;
23044;SDS011;11690;51.716;23.066;2022-10-16T05:59:53;25.67;;;18.73;;
23044;SDS011;11690;51.716;23.066;2022-10-16T06:02:20;26.77;;;18.70;;
23044;SDS011;11690;51.716;23.066;2022-10-16T06:04:48;22.75;;;15.82;;
23044;SDS011;11690;51.716;23.066;2022-10-16T06:07:14;24.65;;;17.38;;
23044;SDS011;11690;51.716;23.066;2022-10-16T06:09:42;27.92;;;17.08;;
23044;SDS011;11690;51.716;23.066;2022-10-16T06:12:08;27.92;;;17.25;;
23044;SDS011;11690;51.716;23.066;2022-10-16T06:14:36;25.80;;;16.92;;
23044;SDS011;11690;51.716;23.066;2022-10-16T06:17:03;26.75;;;19.23;;
23044;SDS011;11690;51.716;23.066;2022-10-16T06:19:30;31.42;;;25.05;;
23044;SDS011;11690;51.716;23.066;2022-10-16T06:21:57;37.72;;;29.95;;
23044;SDS011;11690;51.716;23.066;2022-10-16T06:24:25;39.42;;;31.88;;
23044;SDS011;11690;51.716;23.066;2022-10-16T06:26:52;36.33;;;25.63;;
23044;SDS011;11690;51.716;23.066;2022-10-16T06:29:19;39.80;;;30.00;;
23044;SDS011;11690;51.716;23.066;2022-10-16T06:31:46;28.15;;;23.45;;
23044;SDS011;11690;51.716;23.066;2022-10-16T06:34:13;24.30;;;17.85;;
23044;SDS011;11690;51.716;23.066;2022-10-16T06:36:40;29.33;;;23.20;;
23044;SDS011;11690;51.716;23.066;2022-10-16T06:39:07;23.38;;;16.13;;
23044;SDS011;11690;51.716;23.066;2022-10-16T06:41:34;37.45;;;19.80;;
23044;SDS011;11690;51.716;23.066;2022-10-16T06:44:14;26.48;;;16.17;;
23044;SDS011;11690;51.716;23.066;2022-10-16T06:46:41;24.05;;;16.38;;
23044;SDS011;11690;51.716;23.066;2022-10-16T06:49:08;26.83;;;17.05;;
23044;SDS011;11690;51.716;23.066;2022-10-16T06:51:35;23.13;;;15.15;;
23044;SDS011;11690;51.716;23.066;2022-10-16T06:54:09;25.35;;;15.32;;
23044;SDS011;11690;51.716;23.066;2022-10-16T06:56:36;22.08;;;15.57;;
23044;SDS011;11690;51.716;23.066;2022-10-16T06:59:03;29.83;;;22.77;;
23044;SDS011;11690;51.716;23.066;2022-10-16T07:01:31;32.22;;;23.23;;
23044;SDS011;11690;51.716;23.066;2022-10-16T07:03:59;33.78;;;29.30;;
23044;SDS011;11690;51.716;23.066;2022-10-16T07:06:27;40.03;;;33.97;;
23044;SDS011;11690;51.716;23.066;2022-10-16T07:08:57;32.78;;;25.75;;
23044;SDS011;11690;51.716;23.066;2022-10-16T07:11:24;44.42;;;35.40;;
23044;SDS011;11690;51.716;23.066;2022-10-16T07:13:51;27.83;;;19.08;;
23044;SDS011;11690;51.716;23.066;2022-10-16T07:16:23;28.63;;;21.83;;
23044;SDS011;11690;51.716;23.066;2022-10-16T07:18:53;23.42;;;16.40;;
23044;SDS011;11690;51.716;23.066;2022-10-16T07:21:27;23.08;;;16.80;;
23044;SDS011;11690;51.716;23.066;2022-10-16T07:24:03;27.75;;;18.48;;
23044;SDS011;11690;51.716;23.066;2022-10-16T07:26:33;21.25;;;16.02;;
23044;SDS011;11690;51.716;23.066;2022-10-16T07:29:01;23.98;;;16.10;;
23044;SDS011;11690;51.716;23.066;2022-10-16T07:31:28;24.45;;;15.68;;
23044;SDS011;11690;51.716;23.066;2022-10-16T07:33:57;21.58;;;15.23;;
23044;SDS011;11690;51.716;23.066;2022-10-16T07:36:25;23.50;;;14.05;;
23044;SDS011;11690;51.716;23.066;2022-10-16T07:38:52;23.85;;;16.35;;
23044;SDS011;11690;51.716;23.066;2022-10-16T07:41:25;21.10;;;15.90;;
23044;SDS011;11690;51.716;23.066;2022-10-16T07:43:52;31.23;;;23.73;;
23044;SDS011;11690;51.716;23.066;2022-10-16T07:46:20;28.10;;;21.30;;
23044;SDS011;11690;51.716;23.066;2022-10-16T07:48:49;27.95;;;19.40;;
23044;SDS011;11690;51.716;23.066;2022-10-16T07:51:17;20.83;;;14.35;;
23044;SDS011;11690;51.716;23.066;2022-10-16T07:53:45;25.48;;;15.55;;
23044;SDS011;11690;51.716;23.066;2022-10-16T07:56:13;23.08;;;14.23;;
23044;SDS011;11690;51.716;23.066;2022-10-16T07:58:41;24.13;;;14.93;;
23044;SDS011;11690;51.716;23.066;2022-10-16T08:01:10;20.27;;;13.55;;
23044;SDS011;11690;51.716;23.066;2022-10-16T08:03:43;21.17;;;13.40;;
23044;SDS011;11690;51.716;23.066;2022-10-16T08:06:11;20.75;;;14.27;;
23044;SDS011;11690;51.716;23.066;2022-10-16T08:08:38;21.70;;;13.20;;
23044;SDS011;11690;51.716;23.066;2022-10-16T08:11:05;18.55;;;12.27;;
23044;SDS011;11690;51.716;23.066;2022-10-16T08:13:32;14.10;;;11.68;;
23044;SDS011;11690;51.716;23.066;2022-10-16T08:15:59;16.80;;;12.65;;
23044;SDS011;11690;51.716;23.066;2022-10-16T08:18:26;18.27;;;12.25;;
23044;SDS011;11690;51.716;23.066;2022-10-16T08:20:57;20.02;;;12.48;;
23044;SDS011;11690;51.716;23.066;2022-10-16T08:23:25;19.10;;;13.05;;
23044;SDS011;11690;51.716;23.066;2022-10-16T08:25:53;19.13;;;12.80;;
23044;SDS011;11690;51.716;23.066;2022-10-16T08:28:22;18.98;;;13.02;;
23044;SDS011;11690;51.716;23.066;2022-10-16T08:30:49;20.95;;;12.85;;
23044;SDS011;11690;51.716;23.066;2022-10-16T08:33:16;19.08;;;12.73;;
23044;SDS011;11690;51.716;23.066;2022-10-16T08:35:50;17.80;;;13.18;;
23044;SDS011;11690;51.716;23.066;2022-10-16T08:38:20;23.90;;;14.20;;
23044;SDS011;11690;51.716;23.066;2022-10-16T08:40:47;19.85;;;12.65;;
23044;SDS011;11690;51.716;23.066;2022-10-16T08:48:53;20.85;;;17.95;;
23044;SDS011;11690;51.716;23.066;2022-10-16T08:51:22;22.00;;;16.60;;
23044;SDS011;11690;51.716;23.066;2022-10-16T08:53:55;23.88;;;15.45;;
23044;SDS011;11690;51.716;23.066;2022-10-16T08:56:24;17.58;;;11.63;;
23044;SDS011;11690;51.716;23.066;2022-10-16T08:58:52;19.75;;;12.10;;
23044;SDS011;11690;51.716;23.066;2022-10-16T09:01:37;19.17;;;12.20;;
23044;SDS011;11690;51.716;23.066;2022-10-16T09:09:34;16.80;;;11.88;;
23044;SDS011;11690;51.716;23.066;2022-10-16T09:14:56;18.10;;;12.10;;
23044;SDS011;11690;51.716;23.066;2022-10-16T09:22:30;18.02;;;13.05;;
23044;SDS011;11690;51.716;23.066;2022-10-16T09:25:10;21.42;;;14.77;;
23044;SDS011;11690;51.716;23.066;2022-10-16T09:27:48;26.38;;;17.80;;
23044;SDS011;11690;51.716;23.066;2022-10-16T09:30:16;19.13;;;14.68;;
23044;SDS011;11690;51.716;23.066;2022-10-16T09:32:45;19.25;;;17.23;;
23044;SDS011;11690;51.716;23.066;2022-10-16T09:35:16;16.58;;;12.10;;
23044;SDS011;11690;51.716;23.066;2022-10-16T09:37:45;16.73;;;11.32;;
23044;SDS011;11690;51.716;23.066;2022-10-16T09:40:23;17.50;;;10.88;;
23044;SDS011;11690;51.716;23.066;2022-10-16T09:42:53;16.30;;;11.38;;
23044;SDS011;11690;51.716;23.066;2022-10-16T09:45:24;18.60;;;11.63;;
23044;SDS011;11690;51.716;23.066;2022-10-16T09:47:51;18.50;;;11.52;;
23044;SDS011;11690;51.716;23.066;2022-10-16T09:50:25;16.42;;;10.40;;
23044;SDS011;11690;51.716;23.066;2022-10-16T09:53:08;14.77;;;10.43;;
23044;SDS011;11690;51.716;23.066;2022-10-16T09:55:47;15.50;;;11.23;;
23044;SDS011;11690;51.716;23.066;2022-10-16T09:58:15;16.73;;;11.32;;
23044;SDS011;11690;51.716;23.066;2022-10-16T10:00:48;18.08;;;11.00;;
23044;SDS011;11690;51.716;23.066;2022-10-16T10:03:36;13.70;;;10.85;;
23044;SDS011;11690;51.716;23.066;2022-10-16T10:06:07;14.93;;;10.35;;
23044;SDS011;11690;51.716;23.066;2022-10-16T10:09:44;13.20;;;10.10;;
23044;SDS011;11690;51.716;23.066;2022-10-16T10:16:51;16.25;;;10.55;;
23044;SDS011;11690;51.716;23.066;2022-10-16T10:19:23;15.10;;;10.40;;
23044;SDS011;11690;51.716;23.066;2022-10-16T10:21:56;16.08;;;10.27;;
23044;SDS011;11690;51.716;23.066;2022-10-16T10:24:23;13.88;;;10.05;;
23044;SDS011;11690;51.716;23.066;2022-10-16T10:29:26;13.82;;;9.60;;
23044;SDS011;11690;51.716;23.066;2022-10-16T10:37:04;16.13;;;9.85;;
23044;SDS011;11690;51.716;23.066;2022-10-16T10:40:03;19.10;;;10.18;;
23044;SDS011;11690;51.716;23.066;2022-10-16T10:45:28;13.93;;;10.27;;
23044;SDS011;11690;51.716;23.066;2022-10-16T10:50:49;17.55;;;9.93;;
23044;SDS011;11690;51.716;23.066;2022-10-16T11:01:39;13.68;;;9.85;;
23044;SDS011;11690;51.716;23.066;2022-10-16T11:07:31;14.75;;;9.10;;
23044;SDS011;11690;51.716;23.066;2022-10-16T11:10:05;14.40;;;9.13;;
23044;SDS011;11690;51.716;23.066;2022-10-16T11:12:39;14.77;;;8.82;;
23044;SDS011;11690;51.716;23.066;2022-10-16T11:20:24;17.35;;;9.68;;
23044;SDS011;11690;51.716;23.066;2022-10-16T11:25:29;18.50;;;9.93;;
23044;SDS011;11690;51.716;23.066;2022-10-16T11:30:47;12.88;;;9.70;;
23044;SDS011;11690;51.716;23.066;2022-10-16T11:35:51;16.48;;;9.00;;
23044;SDS011;11690;51.716;23.066;2022-10-16T11:38:35;13.93;;;9.52;;
23044;SDS011;11690;51.716;23.066;2022-10-16T11:41:11;14.88;;;9.25;;
23044;SDS011;11690;51.716;23.066;2022-10-16T11:43:52;11.32;;;8.93;;
23044;SDS011;11690;51.716;23.066;2022-10-16T11:46:43;15.00;;;9.05;;
23044;SDS011;11690;51.716;23.066;2022-10-16T11:49:34;11.98;;;9.20;;
23044;SDS011;11690;51.716;23.066;2022-10-16T11:52:08;15.23;;;9.43;;
23044;SDS011;11690;51.716;23.066;2022-10-16T11:57:33;14.63;;;9.57;;
23044;SDS011;11690;51.716;23.066;2022-10-16T12:05:54;15.98;;;9.52;;
23044;SDS011;11690;51.716;23.066;2022-10-16T12:08:25;11.60;;;8.52;;
23044;SDS011;11690;51.716;23.066;2022-10-16T12:10:53;15.00;;;9.55;;
23044;SDS011;11690;51.716;23.066;2022-10-16T12:16:31;12.00;;;8.23;;
23044;SDS011;11690;51.716;23.066;2022-10-16T12:19:02;13.98;;;8.93;;
23044;SDS011;11690;51.716;23.066;2022-10-16T12:21:39;13.23;;;9.32;;
23044;SDS011;11690;51.716;23.066;2022-10-16T12:24:06;11.65;;;8.15;;
23044;SDS011;11690;51.716;23.066;2022-10-16T12:26:48;11.18;;;8.77;;
23044;SDS011;11690;51.716;23.066;2022-10-16T12:32:27;10.85;;;9.02;;
23044;SDS011;11690;51.716;23.066;2022-10-16T12:35:19;12.52;;;9.23;;
23044;SDS011;11690;51.716;23.066;2022-10-16T12:37:47;13.23;;;9.20;;
23044;SDS011;11690;51.716;23.066;2022-10-16T12:40:22;14.30;;;9.30;;
23044;SDS011;11690;51.716;23.066;2022-10-16T12:42:51;15.10;;;10.25;;
23044;SDS011;11690;51.716;23.066;2022-10-16T12:45:32;13.40;;;9.27;;
23044;SDS011;11690;51.716;23.066;2022-10-16T12:48:01;14.35;;;9.88;;
23044;SDS011;11690;51.716;23.066;2022-10-16T12:50:30;13.70;;;9.07;;
23044;SDS011;11690;51.716;23.066;2022-10-16T12:53:03;14.40;;;9.10;;
23044;SDS011;11690;51.716;23.066;2022-10-16T12:55:47;17.45;;;9.77;;
23044;SDS011;11690;51.716;23.066;2022-10-16T13:01:22;14.60;;;9.88;;
23044;SDS011;11690;51.716;23.066;2022-10-16T13:04:04;11.77;;;8.48;;
23044;SDS011;11690;51.716;23.066;2022-10-16T13:23:43;10.75;;;7.82;;
23044;SDS011;11690;51.716;23.066;2022-10-16T13:28:51;10.25;;;7.93;;
23044;SDS011;11690;51.716;23.066;2022-10-16T13:31:21;11.20;;;8.18;;
23044;SDS011;11690;51.716;23.066;2022-10-16T13:33:51;10.77;;;7.70;;
23044;SDS011;11690;51.716;23.066;2022-10-16T13:36:22;12.40;;;8.15;;
23044;SDS011;11690;51.716;23.066;2022-10-16T13:38:58;13.15;;;8.25;;
23044;SDS011;11690;51.716;23.066;2022-10-16T13:41:35;13.27;;;8.00;;
23044;SDS011;11690;51.716;23.066;2022-10-16T13:44:02;12.23;;;8.38;;
23044;SDS011;11690;51.716;23.066;2022-10-16T13:46:30;11.27;;;8.63;;
23044;SDS011;11690;51.716;23.066;2022-10-16T13:49:02;11.75;;;8.10;;
23044;SDS011;11690;51.716;23.066;2022-10-16T13:51:31;11.07;;;8.85;;
23044;SDS011;11690;51.716;23.066;2022-10-16T13:53:59;18.73;;;9.05;;
23044;SDS011;11690;51.716;23.066;2022-10-16T13:56:27;10.68;;;8.00;;
23044;SDS011;11690;51.716;23.066;2022-10-16T13:59:03;10.40;;;7.88;;
23044;SDS011;11690;51.716;23.066;2022-10-16T14:01:33;18.63;;;9.90;;
23044;SDS011;11690;51.716;23.066;2022-10-16T14:04:02;11.98;;;7.85;;
23044;SDS011;11690;51.716;23.066;2022-10-16T14:06:31;12.38;;;8.82;;
23044;SDS011;11690;51.716;23.066;2022-10-16T14:09:12;14.85;;;8.80;;
23044;SDS011;11690;51.716;23.066;2022-10-16T14:11:50;13.20;;;8.73;;
23044;SDS011;11690;51.716;23.066;2022-10-16T14:14:19;15.18;;;9.10;;
23044;SDS011;11690;51.716;23.066;2022-10-16T14:16:47;10.80;;;8.52;;
23044;SDS011;11690;51.716;23.066;2022-10-16T14:21:47;11.60;;;8.98;;
23044;SDS011;11690;51.716;23.066;2022-10-16T14:26:57;13.27;;;8.75;;
23044;SDS011;11690;51.716;23.066;2022-10-16T14:29:25;16.08;;;9.90;;
23044;SDS011;11690;51.716;23.066;2022-10-16T14:31:54;14.73;;;10.15;;
23044;SDS011;11690;51.716;23.066;2022-10-16T14:34:29;15.75;;;9.48;;
23044;SDS011;11690;51.716;23.066;2022-10-16T14:37:02;10.10;;;8.23;;
23044;SDS011;11690;51.716;23.066;2022-10-16T14:39:40;14.70;;;9.48;;
23044;SDS011;11690;51.716;23.066;2022-10-16T14:42:17;20.45;;;14.77;;
23044;SDS011;11690;51.716;23.066;2022-10-16T14:44:46;14.15;;;10.27;;
23044;SDS011;11690;51.716;23.066;2022-10-16T14:47:14;17.80;;;9.70;;
23044;SDS011;11690;51.716;23.066;2022-10-16T14:49:43;13.82;;;9.15;;
23044;SDS011;11690;51.716;23.066;2022-10-16T14:52:10;15.48;;;9.43;;
23044;SDS011;11690;51.716;23.066;2022-10-16T14:54:38;12.07;;;9.35;;
23044;SDS011;11690;51.716;23.066;2022-10-16T14:57:12;15.10;;;9.77;;
23044;SDS011;11690;51.716;23.066;2022-10-16T14:59:44;18.73;;;12.35;;
23044;SDS011;11690;51.716;23.066;2022-10-16T15:04:48;16.33;;;10.88;;
23044;SDS011;11690;51.716;23.066;2022-10-16T15:07:15;13.30;;;9.00;;
23044;SDS011;11690;51.716;23.066;2022-10-16T15:09:42;12.20;;;9.10;;
23044;SDS011;11690;51.716;23.066;2022-10-16T15:12:15;12.15;;;9.27;;
23044;SDS011;11690;51.716;23.066;2022-10-16T15:14:42;12.57;;;9.38;;
23044;SDS011;11690;51.716;23.066;2022-10-16T15:17:10;12.15;;;9.43;;
23044;SDS011;11690;51.716;23.066;2022-10-16T15:19:37;20.75;;;15.63;;
23044;SDS011;11690;51.716;23.066;2022-10-16T15:22:04;19.35;;;11.27;;
23044;SDS011;11690;51.716;23.066;2022-10-16T15:24:32;20.13;;;13.20;;
23044;SDS011;11690;51.716;23.066;2022-10-16T15:26:58;115.25;;;39.15;;
23044;SDS011;11690;51.716;23.066;2022-10-16T15:29:25;63.95;;;26.73;;
23044;SDS011;11690;51.716;23.066;2022-10-16T15:31:52;116.57;;;55.83;;
23044;SDS011;11690;51.716;23.066;2022-10-16T15:34:19;61.15;;;50.33;;
23044;SDS011;11690;51.716;23.066;2022-10-16T15:36:46;245.07;;;92.03;;
23044;SDS011;11690;51.716;23.066;2022-10-16T15:39:14;142.18;;;55.00;;
23044;SDS011;11690;51.716;23.066;2022-10-16T15:41:42;51.78;;;22.67;;
23044;SDS011;11690;51.716;23.066;2022-10-16T15:44:10;63.15;;;26.77;;
23044;SDS011;11690;51.716;23.066;2022-10-16T15:46:37;126.88;;;106.15;;
23044;SDS011;11690;51.716;23.066;2022-10-16T15:49:04;206.27;;;125.10;;
23044;SDS011;11690;51.716;23.066;2022-10-16T15:51:30;289.58;;;85.80;;
23044;SDS011;11690;51.716;23.066;2022-10-16T15:53:59;148.80;;;54.95;;
23044;SDS011;11690;51.716;23.066;2022-10-16T15:56:28;117.80;;;52.70;;
23044;SDS011;11690;51.716;23.066;2022-10-16T15:58:55;88.22;;;38.50;;
23044;SDS011;11690;51.716;23.066;2022-10-16T16:01:24;70.10;;;28.83;;
23044;SDS011;11690;51.716;23.066;2022-10-16T16:03:53;33.15;;;21.58;;
23044;SDS011;11690;51.716;23.066;2022-10-16T16:06:20;158.50;;;51.30;;
23044;SDS011;11690;51.716;23.066;2022-10-16T16:08:49;126.43;;;56.03;;
23044;SDS011;11690;51.716;23.066;2022-10-16T16:11:17;86.38;;;33.00;;
23044;SDS011;11690;51.716;23.066;2022-10-16T16:13:44;87.57;;;37.38;;
23044;SDS011;11690;51.716;23.066;2022-10-16T16:16:12;63.53;;;33.60;;
23044;SDS011;11690;51.716;23.066;2022-10-16T16:18:41;99.55;;;44.70;;
23044;SDS011;11690;51.716;23.066;2022-10-16T16:21:09;82.65;;;34.88;;
23044;SDS011;11690;51.716;23.066;2022-10-16T16:23:38;69.90;;;32.10;;
23044;SDS011;11690;51.716;23.066;2022-10-16T16:26:06;145.00;;;94.32;;
23044;SDS011;11690;51.716;23.066;2022-10-16T16:28:41;453.00;;;306.38;;
23044;SDS011;11690;51.716;23.066;2022-10-16T16:31:09;262.92;;;116.70;;